sensor_id;sensor_type;location;lat;lon;timestamp;P1;P2;P0
23240;PMS7003;11789;53.482;9.862;2023-09-30T00:00:31;2.00;2.00;2.00
23240;PMS7003;11789;53.482;9.862;2023-09-30T00:02:58;3.75;3.75;2.75
23240;PMS7003;11789;53.482;9.862;2023-09-30T00:05:25;6.25;3.25;2.00
23240;PMS7003;11789;53.482;9.862;2023-09-30T00:07:51;9.50;3.00;1.25
23240;PMS7003;11789;53.482;9.862;2023-09-30T00:10:16;4.50;3.00;2.00
23240;PMS7003;11789;53.482;9.862;2023-09-30T00:12:42;5.00;3.25;2.50
23240;PMS7003;11789;53.482;9.862;2023-09-30T00:15:08;0.00;0.00;0.00
23240;PMS7003;11789;53.482;9.862;2023-09-30T00:17:34;3.00;3.00;2.00
23240;PMS7003;11789;53.482;9.862;2023-09-30T00:19:59;2.75;2.75;2.00
23240;PMS7003;11789;53.482;9.862;2023-09-30T00:22:25;4.50;3.75;2.00
23240;PMS7003;11789;53.482;9.862;2023-09-30T00:24:50;5.75;3.25;2.00
23240;PMS7003;11789;53.482;9.862;2023-09-30T00:27:16;3.25;3.25;2.25
23240;PMS7003;11789;53.482;9.862;2023-09-30T00:29:44;2.50;2.50;2.50
23240;PMS7003;11789;53.482;9.862;2023-09-30T00:32:10;2.50;2.50;2.00
23240;PMS7003;11789;53.482;9.862;2023-09-30T00:34:35;5.00;3.75;2.00
23240;PMS7003;11789;53.482;9.862;2023-09-30T00:37:01;3.25;3.00;2.00
23240;PMS7003;11789;53.482;9.862;2023-09-30T00:39:26;6.50;3.00;2.00
23240;PMS7003;11789;53.482;9.862;2023-09-30T00:41:55;5.50;2.50;2.00
23240;PMS7003;11789;53.482;9.862;2023-09-30T00:44:23;4.75;2.50;2.00
23240;PMS7003;11789;53.482;9.862;2023-09-30T00:46:52;6.00;4.00;2.00
23240;PMS7003;11789;53.482;9.862;2023-09-30T00:49:20;3.00;3.00;2.00
23240;PMS7003;11789;53.482;9.862;2023-09-30T00:51:47;6.25;3.00;2.00
23240;PMS7003;11789;53.482;9.862;2023-09-30T00:54:14;3.75;3.75;2.50
23240;PMS7003;11789;53.482;9.862;2023-09-30T00:56:45;4.00;3.50;2.00
23240;PMS7003;11789;53.482;9.862;2023-09-30T00:59:15;3.75;3.75;3.00
23240;PMS7003;11789;53.482;9.862;2023-09-30T01:01:44;4.00;2.75;2.00
23240;PMS7003;11789;53.482;9.862;2023-09-30T01:04:11;4.50;2.00;2.00
23240;PMS7003;11789;53.482;9.862;2023-09-30T01:06:37;4.25;3.00;2.00
23240;PMS7003;11789;53.482;9.862;2023-09-30T01:09:03;4.00;2.50;2.00
23240;PMS7003;11789;53.482;9.862;2023-09-30T01:11:29;4.75;3.00;2.00
23240;PMS7003;11789;53.482;9.862;2023-09-30T01:13:55;2.75;2.75;1.75
23240;PMS7003;11789;53.482;9.862;2023-09-30T01:16:22;3.00;2.00;2.00
23240;PMS7003;11789;53.482;9.862;2023-09-30T01:18:48;3.75;2.25;2.00
23240;PMS7003;11789;53.482;9.862;2023-09-30T01:21:14;4.50;3.25;2.25
23240;PMS7003;11789;53.482;9.862;2023-09-30T01:23:40;4.75;3.00;1.50
23240;PMS7003;11789;53.482;9.862;2023-09-30T01:26:07;4.75;3.25;2.00
23240;PMS7003;11789;53.482;9.862;2023-09-30T01:28:34;3.00;3.00;2.00
23240;PMS7003;11789;53.482;9.862;2023-09-30T01:31:00;2.25;2.25;2.00
23240;PMS7003;11789;53.482;9.862;2023-09-30T01:33:26;4.00;2.25;2.00
23240;PMS7003;11789;53.482;9.862;2023-09-30T01:35:52;5.25;4.00;2.50
23240;PMS7003;11789;53.482;9.862;2023-09-30T01:38:18;3.50;3.50;2.00
23240;PMS7003;11789;53.482;9.862;2023-09-30T01:40:43;6.75;4.00;2.25
23240;PMS7003;11789;53.482;9.862;2023-09-30T01:43:09;4.25;3.50;2.50
23240;PMS7003;11789;53.482;9.862;2023-09-30T01:45:38;3.25;2.75;2.00
23240;PMS7003;11789;53.482;9.862;2023-09-30T01:48:03;3.75;2.25;2.00
23240;PMS7003;11789;53.482;9.862;2023-09-30T01:50:29;6.00;4.25;2.50
23240;PMS7003;11789;53.482;9.862;2023-09-30T01:52:55;3.00;3.00;2.00
23240;PMS7003;11789;53.482;9.862;2023-09-30T01:55:20;3.00;3.00;2.00
23240;PMS7003;11789;53.482;9.862;2023-09-30T01:57:46;5.00;3.75;2.50
23240;PMS7003;11789;53.482;9.862;2023-09-30T02:00:11;7.00;3.50;2.50
23240;PMS7003;11789;53.482;9.862;2023-09-30T02:02:37;8.25;4.50;2.75
23240;PMS7003;11789;53.482;9.862;2023-09-30T02:05:03;6.25;3.75;3.00
23240;PMS7003;11789;53.482;9.862;2023-09-30T02:07:29;4.50;4.00;2.75
23240;PMS7003;11789;53.482;9.862;2023-09-30T02:09:55;10.00;6.25;3.75
23240;PMS7003;11789;53.482;9.862;2023-09-30T02:12:21;5.25;5.25;3.00
23240;PMS7003;11789;53.482;9.862;2023-09-30T02:14:46;5.75;4.00;3.00
23240;PMS7003;11789;53.482;9.862;2023-09-30T02:17:12;4.75;2.75;1.75
23240;PMS7003;11789;53.482;9.862;2023-09-30T02:19:38;3.00;3.00;2.50
23240;PMS7003;11789;53.482;9.862;2023-09-30T02:22:06;3.75;3.75;1.75
23240;PMS7003;11789;53.482;9.862;2023-09-30T02:24:32;4.50;3.50;2.00
23240;PMS7003;11789;53.482;9.862;2023-09-30T02:26:57;6.25;5.50;2.00
23240;PMS7003;11789;53.482;9.862;2023-09-30T02:29:23;3.75;3.75;2.00
23240;PMS7003;11789;53.482;9.862;2023-09-30T02:31:49;4.00;3.00;2.50
23240;PMS7003;11789;53.482;9.862;2023-09-30T02:34:14;8.75;6.25;3.50
23240;PMS7003;11789;53.482;9.862;2023-09-30T02:36:40;5.75;4.00;2.75
23240;PMS7003;11789;53.482;9.862;2023-09-30T02:39:05;5.00;4.25;2.75
23240;PMS7003;11789;53.482;9.862;2023-09-30T02:41:33;4.25;4.25;3.25
23240;PMS7003;11789;53.482;9.862;2023-09-30T02:43:58;6.50;5.00;2.75
23240;PMS7003;11789;53.482;9.862;2023-09-30T02:46:24;7.25;3.00;2.50
23240;PMS7003;11789;53.482;9.862;2023-09-30T02:48:51;3.75;3.75;1.75
23240;PMS7003;11789;53.482;9.862;2023-09-30T02:51:17;8.00;5.75;3.75
23240;PMS7003;11789;53.482;9.862;2023-09-30T02:53:42;6.75;5.00;3.50
23240;PMS7003;11789;53.482;9.862;2023-09-30T02:56:08;6.50;4.75;3.75
23240;PMS7003;11789;53.482;9.862;2023-09-30T02:58:33;5.75;5.75;3.00
23240;PMS7003;11789;53.482;9.862;2023-09-30T03:00:59;8.25;5.00;3.00
23240;PMS7003;11789;53.482;9.862;2023-09-30T03:03:24;10.00;4.75;2.50
23240;PMS7003;11789;53.482;9.862;2023-09-30T03:05:50;5.00;2.00;1.75
23240;PMS7003;11789;53.482;9.862;2023-09-30T03:08:16;4.50;4.50;3.25
23240;PMS7003;11789;53.482;9.862;2023-09-30T03:10:41;6.25;3.50;1.75
23240;PMS7003;11789;53.482;9.862;2023-09-30T03:13:07;6.25;4.50;2.75
23240;PMS7003;11789;53.482;9.862;2023-09-30T03:15:34;6.00;6.00;3.00
23240;PMS7003;11789;53.482;9.862;2023-09-30T03:18:01;8.25;6.00;3.75
23240;PMS7003;11789;53.482;9.862;2023-09-30T03:20:26;3.75;3.75;1.50
23240;PMS7003;11789;53.482;9.862;2023-09-30T03:22:52;10.25;6.25;3.75
23240;PMS7003;11789;53.482;9.862;2023-09-30T03:25:18;4.50;3.75;3.00
23240;PMS7003;11789;53.482;9.862;2023-09-30T03:27:45;7.75;5.00;3.00
23240;PMS7003;11789;53.482;9.862;2023-09-30T03:30:12;8.75;4.75;3.00
23240;PMS7003;11789;53.482;9.862;2023-09-30T03:32:38;9.00;7.00;3.75
23240;PMS7003;11789;53.482;9.862;2023-09-30T03:35:05;7.00;6.50;4.25
23240;PMS7003;11789;53.482;9.862;2023-09-30T03:37:32;5.50;5.50;3.00
23240;PMS7003;11789;53.482;9.862;2023-09-30T03:39:57;8.25;8.25;4.00
23240;PMS7003;11789;53.482;9.862;2023-09-30T03:42:23;6.50;4.00;2.75
23240;PMS7003;11789;53.482;9.862;2023-09-30T03:44:49;9.25;8.25;3.50
23240;PMS7003;11789;53.482;9.862;2023-09-30T03:47:15;5.25;5.25;4.00
23240;PMS7003;11789;53.482;9.862;2023-09-30T03:49:41;12.75;7.00;4.00
23240;PMS7003;11789;53.482;9.862;2023-09-30T03:52:10;5.00;5.00;3.00
23240;PMS7003;11789;53.482;9.862;2023-09-30T03:57:34;5.50;5.00;2.25
23240;PMS7003;11789;53.482;9.862;2023-09-30T04:00:00;14.50;6.75;4.00
23240;PMS7003;11789;53.482;9.862;2023-09-30T04:02:26;6.50;4.75;3.75
23240;PMS7003;11789;53.482;9.862;2023-09-30T04:04:51;7.00;5.00;3.75
23240;PMS7003;11789;53.482;9.862;2023-09-30T04:07:19;5.00;5.00;3.25
23240;PMS7003;11789;53.482;9.862;2023-09-30T04:09:45;6.25;6.25;3.75
23240;PMS7003;11789;53.482;9.862;2023-09-30T04:12:11;7.50;7.50;4.00
23240;PMS7003;11789;53.482;9.862;2023-09-30T04:14:37;8.75;7.00;4.25
23240;PMS7003;11789;53.482;9.862;2023-09-30T04:17:02;7.75;5.00;3.50
23240;PMS7003;11789;53.482;9.862;2023-09-30T04:19:29;8.75;6.50;3.75
23240;PMS7003;11789;53.482;9.862;2023-09-30T04:21:55;13.00;7.25;4.00
23240;PMS7003;11789;53.482;9.862;2023-09-30T04:24:21;8.75;6.75;4.25
23240;PMS7003;11789;53.482;9.862;2023-09-30T04:26:47;4.25;4.25;2.25
23240;PMS7003;11789;53.482;9.862;2023-09-30T04:29:15;6.75;4.75;3.75
23240;PMS7003;11789;53.482;9.862;2023-09-30T04:31:40;8.75;6.25;4.25
23240;PMS7003;11789;53.482;9.862;2023-09-30T04:34:07;6.50;6.25;4.25
23240;PMS7003;11789;53.482;9.862;2023-09-30T04:36:33;8.50;6.75;4.75
23240;PMS7003;11789;53.482;9.862;2023-09-30T04:39:01;7.50;7.50;4.75
23240;PMS7003;11789;53.482;9.862;2023-09-30T04:41:28;7.50;6.50;4.25
23240;PMS7003;11789;53.482;9.862;2023-09-30T04:43:53;7.25;4.75;2.50
23240;PMS7003;11789;53.482;9.862;2023-09-30T04:46:19;6.25;6.25;4.00
23240;PMS7003;11789;53.482;9.862;2023-09-30T04:48:48;10.25;6.00;4.00
23240;PMS7003;11789;53.482;9.862;2023-09-30T04:51:13;8.50;8.50;4.75
23240;PMS7003;11789;53.482;9.862;2023-09-30T04:53:41;7.50;5.25;3.75
23240;PMS7003;11789;53.482;9.862;2023-09-30T04:56:07;10.25;5.50;3.75
23240;PMS7003;11789;53.482;9.862;2023-09-30T04:58:32;8.75;7.50;4.75
23240;PMS7003;11789;53.482;9.862;2023-09-30T05:00:58;8.25;6.00;3.50
23240;PMS7003;11789;53.482;9.862;2023-09-30T05:03:23;10.00;7.00;3.75
23240;PMS7003;11789;53.482;9.862;2023-09-30T05:05:50;8.75;8.75;5.75
23240;PMS7003;11789;53.482;9.862;2023-09-30T05:08:20;10.50;7.50;4.00
23240;PMS7003;11789;53.482;9.862;2023-09-30T05:10:46;6.75;6.75;4.00
23240;PMS7003;11789;53.482;9.862;2023-09-30T05:13:11;7.75;7.25;5.00
23240;PMS7003;11789;53.482;9.862;2023-09-30T05:15:37;13.75;8.00;4.00
23240;PMS7003;11789;53.482;9.862;2023-09-30T05:18:03;4.00;4.00;3.00
23240;PMS7003;11789;53.482;9.862;2023-09-30T05:20:30;6.50;5.75;2.25
23240;PMS7003;11789;53.482;9.862;2023-09-30T05:22:55;7.75;5.00;3.75
23240;PMS7003;11789;53.482;9.862;2023-09-30T05:25:21;7.25;7.25;5.00
23240;PMS7003;11789;53.482;9.862;2023-09-30T05:27:51;12.25;6.25;3.75
23240;PMS7003;11789;53.482;9.862;2023-09-30T05:30:17;8.25;3.75;2.25
23240;PMS7003;11789;53.482;9.862;2023-09-30T05:32:44;6.75;5.25;2.75
23240;PMS7003;11789;53.482;9.862;2023-09-30T05:35:11;14.50;8.00;4.25
23240;PMS7003;11789;53.482;9.862;2023-09-30T05:37:41;9.25;7.25;4.00
23240;PMS7003;11789;53.482;9.862;2023-09-30T05:40:07;7.50;4.75;2.75
23240;PMS7003;11789;53.482;9.862;2023-09-30T05:42:47;5.50;5.00;4.00
23240;PMS7003;11789;53.482;9.862;2023-09-30T05:45:16;9.00;5.00;3.00
23240;PMS7003;11789;53.482;9.862;2023-09-30T05:47:42;8.00;6.75;3.25
23240;PMS7003;11789;53.482;9.862;2023-09-30T05:50:09;10.50;7.00;3.50
23240;PMS7003;11789;53.482;9.862;2023-09-30T05:52:39;7.75;7.75;4.00
23240;PMS7003;11789;53.482;9.862;2023-09-30T05:55:06;6.75;6.75;3.75
23240;PMS7003;11789;53.482;9.862;2023-09-30T05:57:32;4.75;4.75;3.75
23240;PMS7003;11789;53.482;9.862;2023-09-30T05:59:58;4.25;4.25;3.00
23240;PMS7003;11789;53.482;9.862;2023-09-30T06:02:23;8.50;6.00;4.50
23240;PMS7003;11789;53.482;9.862;2023-09-30T06:04:49;8.25;5.50;4.75
23240;PMS7003;11789;53.482;9.862;2023-09-30T06:07:17;5.25;4.25;3.00
23240;PMS7003;11789;53.482;9.862;2023-09-30T06:09:45;7.00;6.75;4.25
23240;PMS7003;11789;53.482;9.862;2023-09-30T06:12:12;4.00;4.00;2.75
23240;PMS7003;11789;53.482;9.862;2023-09-30T06:14:37;6.25;6.00;4.00
23240;PMS7003;11789;53.482;9.862;2023-09-30T06:17:03;11.50;6.00;3.75
23240;PMS7003;11789;53.482;9.862;2023-09-30T06:19:28;7.25;5.25;4.00
23240;PMS7003;11789;53.482;9.862;2023-09-30T06:21:54;7.00;7.00;4.50
23240;PMS7003;11789;53.482;9.862;2023-09-30T06:24:19;7.25;6.00;4.00
23240;PMS7003;11789;53.482;9.862;2023-09-30T06:26:45;6.25;6.25;3.75
23240;PMS7003;11789;53.482;9.862;2023-09-30T06:29:14;10.50;6.50;4.00
23240;PMS7003;11789;53.482;9.862;2023-09-30T06:31:39;8.25;5.75;4.00
23240;PMS7003;11789;53.482;9.862;2023-09-30T06:34:05;8.50;7.25;4.75
23240;PMS7003;11789;53.482;9.862;2023-09-30T06:36:32;10.25;7.25;4.75
23240;PMS7003;11789;53.482;9.862;2023-09-30T06:38:57;6.50;6.50;4.00
23240;PMS7003;11789;53.482;9.862;2023-09-30T06:41:24;8.00;6.25;3.75
23240;PMS7003;11789;53.482;9.862;2023-09-30T06:43:50;8.00;6.25;4.00
23240;PMS7003;11789;53.482;9.862;2023-09-30T06:46:17;5.00;5.00;3.00
23240;PMS7003;11789;53.482;9.862;2023-09-30T06:48:45;6.50;6.50;4.75
23240;PMS7003;11789;53.482;9.862;2023-09-30T06:51:14;7.75;7.75;4.75
23240;PMS7003;11789;53.482;9.862;2023-09-30T06:53:40;5.00;5.00;3.75
23240;PMS7003;11789;53.482;9.862;2023-09-30T06:56:05;9.75;6.75;3.75
23240;PMS7003;11789;53.482;9.862;2023-09-30T06:58:31;9.75;6.75;3.75
23240;PMS7003;11789;53.482;9.862;2023-09-30T07:00:57;8.75;5.00;3.50
23240;PMS7003;11789;53.482;9.862;2023-09-30T07:03:22;7.75;4.75;3.75
23240;PMS7003;11789;53.482;9.862;2023-09-30T07:05:48;7.00;5.50;3.50
23240;PMS7003;11789;53.482;9.862;2023-09-30T07:08:17;10.50;6.25;4.00
23240;PMS7003;11789;53.482;9.862;2023-09-30T07:10:43;5.25;4.75;3.75
23240;PMS7003;11789;53.482;9.862;2023-09-30T07:13:11;8.00;4.50;3.00
23240;PMS7003;11789;53.482;9.862;2023-09-30T07:15:37;5.50;4.75;4.25
23240;PMS7003;11789;53.482;9.862;2023-09-30T07:18:02;6.25;6.25;3.25
23240;PMS7003;11789;53.482;9.862;2023-09-30T07:20:28;9.25;3.00;2.50
23240;PMS7003;11789;53.482;9.862;2023-09-30T07:22:58;6.00;5.00;3.00
23240;PMS7003;11789;53.482;9.862;2023-09-30T07:25:24;8.75;7.25;3.75
23240;PMS7003;11789;53.482;9.862;2023-09-30T07:27:50;5.00;3.00;2.75
23240;PMS7003;11789;53.482;9.862;2023-09-30T07:30:15;8.25;4.75;2.75
23240;PMS7003;11789;53.482;9.862;2023-09-30T07:32:41;6.00;4.75;3.75
23240;PMS7003;11789;53.482;9.862;2023-09-30T07:35:07;6.75;6.75;3.00
23240;PMS7003;11789;53.482;9.862;2023-09-30T07:37:33;3.75;3.75;3.00
23240;PMS7003;11789;53.482;9.862;2023-09-30T07:39:59;7.50;5.50;3.00
23240;PMS7003;11789;53.482;9.862;2023-09-30T07:42:24;4.00;4.00;3.00
23240;PMS7003;11789;53.482;9.862;2023-09-30T07:44:50;4.00;4.00;3.00
23240;PMS7003;11789;53.482;9.862;2023-09-30T07:47:16;5.50;5.50;3.25
23240;PMS7003;11789;53.482;9.862;2023-09-30T07:49:42;7.75;5.00;3.75
23240;PMS7003;11789;53.482;9.862;2023-09-30T07:52:08;5.25;3.75;2.00
23240;PMS7003;11789;53.482;9.862;2023-09-30T07:54:34;4.75;4.25;2.00
23240;PMS7003;11789;53.482;9.862;2023-09-30T07:56:59;5.00;5.00;2.00
23240;PMS7003;11789;53.482;9.862;2023-09-30T07:59:25;7.00;4.00;3.00
23240;PMS7003;11789;53.482;9.862;2023-09-30T08:01:51;5.00;5.00;3.00
23240;PMS7003;11789;53.482;9.862;2023-09-30T08:04:19;4.00;4.00;3.00
23240;PMS7003;11789;53.482;9.862;2023-09-30T08:06:45;4.50;4.00;3.00
23240;PMS7003;11789;53.482;9.862;2023-09-30T08:09:14;4.50;4.50;3.00
23240;PMS7003;11789;53.482;9.862;2023-09-30T08:11:40;3.00;3.00;2.00
23240;PMS7003;11789;53.482;9.862;2023-09-30T08:14:06;4.00;2.50;2.00
23240;PMS7003;11789;53.482;9.862;2023-09-30T08:16:34;3.50;3.50;2.50
23240;PMS7003;11789;53.482;9.862;2023-09-30T08:18:59;5.25;3.00;1.50
23240;PMS7003;11789;53.482;9.862;2023-09-30T08:21:25;3.50;3.25;2.00
23240;PMS7003;11789;53.482;9.862;2023-09-30T08:23:50;3.50;3.50;2.00
23240;PMS7003;11789;53.482;9.862;2023-09-30T08:26:16;3.25;3.25;2.00
23240;PMS7003;11789;53.482;9.862;2023-09-30T08:28:41;4.00;3.00;2.00
23240;PMS7003;11789;53.482;9.862;2023-09-30T08:31:07;3.00;3.00;2.00
23240;PMS7003;11789;53.482;9.862;2023-09-30T08:33:34;5.00;3.75;2.00
23240;PMS7003;11789;53.482;9.862;2023-09-30T08:36:04;2.25;2.25;2.00
23240;PMS7003;11789;53.482;9.862;2023-09-30T08:38:34;6.00;4.00;2.75
23240;PMS7003;11789;53.482;9.862;2023-09-30T08:41:00;4.50;3.50;3.00
23240;PMS7003;11789;53.482;9.862;2023-09-30T08:43:27;6.00;3.00;2.00
23240;PMS7003;11789;53.482;9.862;2023-09-30T08:45:58;3.25;3.25;2.25
23240;PMS7003;11789;53.482;9.862;2023-09-30T08:48:28;4.00;2.25;1.00
23240;PMS7003;11789;53.482;9.862;2023-09-30T08:50:55;7.25;2.50;2.00
23240;PMS7003;11789;53.482;9.862;2023-09-30T08:53:23;2.25;2.25;1.50
23240;PMS7003;11789;53.482;9.862;2023-09-30T08:55:52;2.75;2.75;2.00
23240;PMS7003;11789;53.482;9.862;2023-09-30T08:58:19;5.25;3.25;1.50
23240;PMS7003;11789;53.482;9.862;2023-09-30T09:00:48;4.50;3.00;1.75
23240;PMS7003;11789;53.482;9.862;2023-09-30T09:03:15;4.00;4.00;2.00
23240;PMS7003;11789;53.482;9.862;2023-09-30T09:05:43;3.25;2.75;1.50
23240;PMS7003;11789;53.482;9.862;2023-09-30T09:08:08;3.75;2.00;2.00
23240;PMS7003;11789;53.482;9.862;2023-09-30T09:10:34;3.50;3.00;1.75
23240;PMS7003;11789;53.482;9.862;2023-09-30T09:13:00;3.00;3.00;2.00
23240;PMS7003;11789;53.482;9.862;2023-09-30T09:15:26;2.25;2.25;2.00
23240;PMS7003;11789;53.482;9.862;2023-09-30T09:17:56;8.25;4.50;1.50
23240;PMS7003;11789;53.482;9.862;2023-09-30T09:20:22;7.75;2.00;2.00
23240;PMS7003;11789;53.482;9.862;2023-09-30T09:22:51;3.00;3.00;2.00
23240;PMS7003;11789;53.482;9.862;2023-09-30T09:25:24;3.00;3.00;2.25
23240;PMS7003;11789;53.482;9.862;2023-09-30T09:27:50;2.00;2.00;1.00
23240;PMS7003;11789;53.482;9.862;2023-09-30T09:30:20;4.50;2.50;1.50
23240;PMS7003;11789;53.482;9.862;2023-09-30T09:33:04;1.75;1.75;1.25
23240;PMS7003;11789;53.482;9.862;2023-09-30T09:35:31;5.25;3.75;2.75
23240;PMS7003;11789;53.482;9.862;2023-09-30T09:40:36;2.50;2.00;1.00
23240;PMS7003;11789;53.482;9.862;2023-09-30T09:43:05;3.00;1.00;1.00
23240;PMS7003;11789;53.482;9.862;2023-09-30T09:45:35;2.50;2.50;1.00
23240;PMS7003;11789;53.482;9.862;2023-09-30T09:48:03;3.25;2.75;1.75
23240;PMS7003;11789;53.482;9.862;2023-09-30T09:50:30;3.00;2.00;1.00
23240;PMS7003;11789;53.482;9.862;2023-09-30T09:52:59;5.25;2.00;2.00
23240;PMS7003;11789;53.482;9.862;2023-09-30T09:55:26;3.00;1.25;1.00
23240;PMS7003;11789;53.482;9.862;2023-09-30T09:57:52;3.00;3.00;1.75
23240;PMS7003;11789;53.482;9.862;2023-09-30T10:00:20;2.00;2.00;1.00
23240;PMS7003;11789;53.482;9.862;2023-09-30T10:02:48;2.25;2.25;1.25
23240;PMS7003;11789;53.482;9.862;2023-09-30T10:05:15;5.25;2.00;1.25
23240;PMS7003;11789;53.482;9.862;2023-09-30T10:07:47;2.00;2.00;1.00
23240;PMS7003;11789;53.482;9.862;2023-09-30T10:10:17;1.25;1.25;1.00
23240;PMS7003;11789;53.482;9.862;2023-09-30T10:12:44;4.75;1.00;1.00
23240;PMS7003;11789;53.482;9.862;2023-09-30T10:18:04;2.00;2.00;1.75
23240;PMS7003;11789;53.482;9.862;2023-09-30T10:20:41;1.50;1.00;1.00
23240;PMS7003;11789;53.482;9.862;2023-09-30T10:23:28;1.50;1.50;1.00
23240;PMS7003;11789;53.482;9.862;2023-09-30T10:28:43;3.50;3.00;1.00
23240;PMS7003;11789;53.482;9.862;2023-09-30T10:38:57;2.50;2.00;1.00
23240;PMS7003;11789;53.482;9.862;2023-09-30T10:46:55;1.00;1.00;1.00
23240;PMS7003;11789;53.482;9.862;2023-09-30T10:51:51;5.00;1.50;1.00
23240;PMS7003;11789;53.482;9.862;2023-09-30T10:54:24;5.00;1.75;1.75
23240;PMS7003;11789;53.482;9.862;2023-09-30T10:56:51;3.50;2.00;1.00
23240;PMS7003;11789;53.482;9.862;2023-09-30T11:01:50;2.75;1.25;0.25
23240;PMS7003;11789;53.482;9.862;2023-09-30T11:04:16;1.50;1.50;1.25
23240;PMS7003;11789;53.482;9.862;2023-09-30T11:06:43;5.00;2.00;1.00
23240;PMS7003;11789;53.482;9.862;2023-09-30T11:09:14;2.75;2.75;1.00
23240;PMS7003;11789;53.482;9.862;2023-09-30T11:11:42;4.50;1.50;1.00
23240;PMS7003;11789;53.482;9.862;2023-09-30T11:14:30;2.25;2.00;1.00
23240;PMS7003;11789;53.482;9.862;2023-09-30T11:17:02;1.25;1.25;0.50
23240;PMS7003;11789;53.482;9.862;2023-09-30T11:20:04;2.25;2.00;1.00
23240;PMS7003;11789;53.482;9.862;2023-09-30T11:22:23;2.75;1.75;1.00
23240;PMS7003;11789;53.482;9.862;2023-09-30T11:24:48;2.00;2.00;1.00
23240;PMS7003;11789;53.482;9.862;2023-09-30T11:27:22;1.00;1.00;0.25
23240;PMS7003;11789;53.482;9.862;2023-09-30T11:29:49;5.00;2.00;1.50
23240;PMS7003;11789;53.482;9.862;2023-09-30T11:32:27;1.00;1.00;1.00
23240;PMS7003;11789;53.482;9.862;2023-09-30T11:34:53;3.50;1.25;1.00
23240;PMS7003;11789;53.482;9.862;2023-09-30T11:37:19;3.00;2.00;1.00
23240;PMS7003;11789;53.482;9.862;2023-09-30T11:39:46;1.25;1.25;1.00
23240;PMS7003;11789;53.482;9.862;2023-09-30T11:42:16;3.00;1.00;1.00
23240;PMS7003;11789;53.482;9.862;2023-09-30T11:44:46;1.50;1.25;1.00
23240;PMS7003;11789;53.482;9.862;2023-09-30T11:47:13;1.00;1.00;1.00
23240;PMS7003;11789;53.482;9.862;2023-09-30T11:49:40;1.00;1.00;1.00
23240;PMS7003;11789;53.482;9.862;2023-09-30T11:52:13;4.50;1.25;1.00
23240;PMS7003;11789;53.482;9.862;2023-09-30T11:54:43;2.00;1.00;0.25
23240;PMS7003;11789;53.482;9.862;2023-09-30T11:57:16;1.50;1.00;1.00
23240;PMS7003;11789;53.482;9.862;2023-09-30T11:59:46;2.00;2.00;1.00
23240;PMS7003;11789;53.482;9.862;2023-09-30T12:02:15;6.25;1.00;0.25
23240;PMS7003;11789;53.482;9.862;2023-09-30T12:04:44;3.75;1.50;0.75
23240;PMS7003;11789;53.482;9.862;2023-09-30T12:07:12;1.00;1.00;1.00
23240;PMS7003;11789;53.482;9.862;2023-09-30T12:09:38;3.00;1.00;1.00
23240;PMS7003;11789;53.482;9.862;2023-09-30T12:12:04;1.25;1.00;1.00
23240;PMS7003;11789;53.482;9.862;2023-09-30T12:14:34;4.00;1.00;1.00
23240;PMS7003;11789;53.482;9.862;2023-09-30T12:16:59;2.50;1.00;1.00
23240;PMS7003;11789;53.482;9.862;2023-09-30T12:19:25;1.00;1.00;1.00
23240;PMS7003;11789;53.482;9.862;2023-09-30T12:21:51;2.00;2.00;1.00
23240;PMS7003;11789;53.482;9.862;2023-09-30T12:24:17;1.25;1.25;0.50
23240;PMS7003;11789;53.482;9.862;2023-09-30T12:26:48;1.50;1.00;1.00
23240;PMS7003;11789;53.482;9.862;2023-09-30T12:29:15;0.00;0.00;0.00
23240;PMS7003;11789;53.482;9.862;2023-09-30T12:31:50;1.00;1.00;0.50
23240;PMS7003;11789;53.482;9.862;2023-09-30T12:34:18;1.00;1.00;0.00
23240;PMS7003;11789;53.482;9.862;2023-09-30T12:36:44;2.25;1.00;1.00
23240;PMS7003;11789;53.482;9.862;2023-09-30T12:39:10;3.00;1.33;1.00
23240;PMS7003;11789;53.482;9.862;2023-09-30T12:41:39;2.00;0.00;0.00
23240;PMS7003;11789;53.482;9.862;2023-09-30T12:44:09;1.75;1.00;1.00
23240;PMS7003;11789;53.482;9.862;2023-09-30T12:46:35;1.00;1.00;1.00
23240;PMS7003;11789;53.482;9.862;2023-09-30T12:49:11;1.67;1.00;0.33
23240;PMS7003;11789;53.482;9.862;2023-09-30T12:51:36;1.00;1.00;1.00
23240;PMS7003;11789;53.482;9.862;2023-09-30T12:54:02;2.00;0.25;0.00
23240;PMS7003;11789;53.482;9.862;2023-09-30T12:56:28;1.33;1.33;1.00
23240;PMS7003;11789;53.482;9.862;2023-09-30T12:58:58;1.50;1.00;0.00
23240;PMS7003;11789;53.482;9.862;2023-09-30T13:01:24;1.25;1.00;0.75
23240;PMS7003;11789;53.482;9.862;2023-09-30T13:03:49;1.00;1.00;1.00
23240;PMS7003;11789;53.482;9.862;2023-09-30T13:06:15;1.00;1.00;0.50
23240;PMS7003;11789;53.482;9.862;2023-09-30T13:08:45;2.00;0.00;0.00
23240;PMS7003;11789;53.482;9.862;2023-09-30T13:11:11;6.00;1.75;0.50
23240;PMS7003;11789;53.482;9.862;2023-09-30T13:13:36;3.25;1.00;0.50
23240;PMS7003;11789;53.482;9.862;2023-09-30T13:16:03;2.75;1.00;1.00
23240;PMS7003;11789;53.482;9.862;2023-09-30T13:18:30;1.00;1.00;0.00
23240;PMS7003;11789;53.482;9.862;2023-09-30T13:20:56;1.00;1.00;1.00
23240;PMS7003;11789;53.482;9.862;2023-09-30T13:23:22;3.00;1.00;0.00
23240;PMS7003;11789;53.482;9.862;2023-09-30T13:25:47;1.00;1.00;0.25
23240;PMS7003;11789;53.482;9.862;2023-09-30T13:28:13;1.00;1.00;0.00
23240;PMS7003;11789;53.482;9.862;2023-09-30T13:30:39;0.75;0.50;0.00
23240;PMS7003;11789;53.482;9.862;2023-09-30T13:33:04;1.00;1.00;0.00
23240;PMS7003;11789;53.482;9.862;2023-09-30T13:35:30;1.00;1.00;0.75
23240;PMS7003;11789;53.482;9.862;2023-09-30T13:37:56;1.00;1.00;0.00
23240;PMS7003;11789;53.482;9.862;2023-09-30T13:40:22;1.00;1.00;1.00
23240;PMS7003;11789;53.482;9.862;2023-09-30T13:42:48;1.25;0.50;0.50
23240;PMS7003;11789;53.482;9.862;2023-09-30T13:45:14;2.25;1.00;1.00
23240;PMS7003;11789;53.482;9.862;2023-09-30T13:47:42;1.67;0.67;0.00
23240;PMS7003;11789;53.482;9.862;2023-09-30T13:50:08;1.00;1.00;0.00
23240;PMS7003;11789;53.482;9.862;2023-09-30T13:52:34;1.00;1.00;0.00
23240;PMS7003;11789;53.482;9.862;2023-09-30T13:55:00;0.75;0.75;0.75
23240;PMS7003;11789;53.482;9.862;2023-09-30T13:57:25;1.50;1.50;0.75
23240;PMS7003;11789;53.482;9.862;2023-09-30T13:59:51;4.75;1.75;1.00
23240;PMS7003;11789;53.482;9.862;2023-09-30T14:02:16;4.00;1.00;0.25
23240;PMS7003;11789;53.482;9.862;2023-09-30T14:04:42;1.25;1.00;1.00
23240;PMS7003;11789;53.482;9.862;2023-09-30T14:07:09;1.00;1.00;0.25
23240;PMS7003;11789;53.482;9.862;2023-09-30T14:09:34;4.00;1.00;0.25
23240;PMS7003;11789;53.482;9.862;2023-09-30T14:11:59;2.50;1.00;0.75
23240;PMS7003;11789;53.482;9.862;2023-09-30T14:14:25;2.00;2.00;1.00
23240;PMS7003;11789;53.482;9.862;2023-09-30T14:16:51;2.00;0.75;0.00
23240;PMS7003;11789;53.482;9.862;2023-09-30T14:19:17;1.00;1.00;0.75
23240;PMS7003;11789;53.482;9.862;2023-09-30T14:21:42;2.50;1.00;1.00
23240;PMS7003;11789;53.482;9.862;2023-09-30T14:24:08;0.75;0.00;0.00
23240;PMS7003;11789;53.482;9.862;2023-09-30T14:26:33;1.75;0.25;0.00
23240;PMS7003;11789;53.482;9.862;2023-09-30T14:28:59;1.00;1.00;0.67
23240;PMS7003;11789;53.482;9.862;2023-09-30T14:31:25;1.00;1.00;1.00
23240;PMS7003;11789;53.482;9.862;2023-09-30T14:33:50;0.50;0.50;0.25
23240;PMS7003;11789;53.482;9.862;2023-09-30T14:36:16;0.25;0.25;0.25
23240;PMS7003;11789;53.482;9.862;2023-09-30T14:38:43;1.00;1.00;0.00
23240;PMS7003;11789;53.482;9.862;2023-09-30T14:41:10;1.50;0.00;0.00
23240;PMS7003;11789;53.482;9.862;2023-09-30T14:43:37;1.00;1.00;0.67
23240;PMS7003;11789;53.482;9.862;2023-09-30T14:46:03;1.00;1.00;0.25
23240;PMS7003;11789;53.482;9.862;2023-09-30T14:48:29;0.00;0.00;0.00